Time;durP1;ratioP1;P1;durP2;ratioP2;P2;SDS_P1;SDS_P2;PMS_P1;PMS_P2;Temp;Humidity;BMP_temperature;BMP_pressure;BME280_temperature;BME280_humidity;BME280_pressure;Samples;Min_cycle;Max_cycle;Signal;HPM_P1;HPM_P2
2023/08/19 00:01:05;;;;;;;16.67;13.03;;;22.50;74.20;;;;;;4961297;28;20414;-78
2023/08/19 00:03:33;;;;;;;18.17;14.07;;;22.50;74.20;;;;;;4966420;28;20051;-78
2023/08/19 00:06:05;;;;;;;16.67;13.50;;;22.50;74.10;;;;;;4965379;28;20058;-78
2023/08/19 00:08:32;;;;;;;15.00;12.77;;;22.50;74.10;;;;;;4965338;28;20130;-78
2023/08/19 00:11:26;;;;;;;19.20;13.48;;;22.50;74.20;;;;;;4960495;28;20055;-77
2023/08/19 00:13:53;;;;;;;15.90;13.40;;;22.50;73.80;;;;;;4969523;28;20081;-78
2023/08/19 00:16:20;;;;;;;18.73;14.40;;;22.40;74.20;;;;;;4969087;28;20209;-77
2023/08/19 00:18:49;;;;;;;18.60;14.55;;;22.40;74.30;;;;;;4969111;28;20505;-77
2023/08/19 00:21:16;;;;;;;18.20;14.63;;;22.40;74.40;;;;;;4959309;28;20122;-78
2023/08/19 00:23:43;;;;;;;18.23;14.48;;;22.30;74.50;;;;;;4966527;28;20055;-77
2023/08/19 00:26:11;;;;;;;17.37;14.40;;;22.30;74.50;;;;;;4969068;28;20637;-77
2023/08/19 00:28:40;;;;;;;18.45;14.23;;;22.30;74.40;;;;;;4971392;28;20826;-78
2023/08/19 00:31:08;;;;;;;20.50;15.00;;;22.30;74.40;;;;;;4952736;28;20079;-78
2023/08/19 00:33:36;;;;;;;18.08;14.27;;;22.20;74.60;;;;;;4963975;28;20047;-77
2023/08/19 00:36:04;;;;;;;18.52;14.25;;;22.20;74.40;;;;;;4952857;28;20050;-78
2023/08/19 00:38:32;;;;;;;19.50;15.60;;;22.20;74.50;;;;;;4969028;28;20106;-77
2023/08/19 00:41:03;;;;;;;20.65;15.18;;;22.20;74.50;;;;;;4946672;28;20142;-77
2023/08/19 00:43:31;;;;;;;17.83;14.20;;;22.20;74.90;;;;;;4952684;28;20164;-77
2023/08/19 00:45:59;;;;;;;20.17;14.45;;;22.10;74.80;;;;;;4968590;28;20077;-78
2023/08/19 00:48:26;;;;;;;18.42;13.95;;;22.10;74.60;;;;;;4968651;28;20055;-77
2023/08/19 00:50:57;;;;;;;18.63;13.53;;;22.10;74.40;;;;;;4952560;28;20150;-78
2023/08/19 00:53:24;;;;;;;18.30;13.95;;;22.00;74.50;;;;;;4952215;28;20106;-77
2023/08/19 00:55:53;;;;;;;18.40;13.55;;;22.00;74.40;;;;;;4968313;28;20055;-77
2023/08/19 00:58:20;;;;;;;18.92;14.45;;;22.00;74.50;;;;;;4968615;28;20177;-78
2023/08/19 01:00:48;;;;;;;17.42;13.48;;;22.00;74.50;;;;;;4968415;28;20160;-77
2023/08/19 01:03:16;;;;;;;17.07;13.53;;;22.00;74.60;;;;;;4964758;28;20047;-77
2023/08/19 01:05:56;;;;;;;15.70;12.18;;;21.90;74.70;;;;;;4961401;28;20051;-77
2023/08/19 01:08:26;;;;;;;15.82;13.23;;;21.90;74.50;;;;;;4952190;28;20079;-77
2023/08/19 01:11:01;;;;;;;17.38;13.70;;;21.90;74.40;;;;;;4968173;28;20055;-77
2023/08/19 01:13:37;;;;;;;18.10;14.13;;;21.90;74.50;;;;;;4952036;28;20058;-77
2023/08/19 01:16:21;;;;;;;16.43;13.17;;;21.90;74.60;;;;;;4952669;28;20047;-78
2023/08/19 01:18:50;;;;;;;17.38;13.40;;;21.90;74.20;;;;;;4958856;28;20130;-77
2023/08/19 01:21:18;;;;;;;17.77;13.85;;;21.90;74.80;;;;;;4952313;28;20557;-77
2023/08/19 01:23:50;;;;;;;19.42;14.75;;;21.80;74.80;;;;;;4968089;28;20083;-77
2023/08/19 01:26:19;;;;;;;18.30;13.75;;;21.80;75.00;;;;;;4951932;28;20138;-77
2023/08/19 01:28:48;;;;;;;18.93;14.43;;;21.80;75.00;;;;;;4952352;28;20055;-77
2023/08/19 01:31:15;;;;;;;17.75;13.77;;;21.80;75.00;;;;;;4969386;28;20051;-78
2023/08/19 01:33:42;;;;;;;16.88;13.10;;;21.70;75.00;;;;;;4952101;28;20066;-78
2023/08/19 01:36:16;;;;;;;18.77;14.23;;;21.70;75.00;;;;;;4952015;28;20079;-77
2023/08/19 01:38:49;;;;;;;16.15;13.13;;;21.70;75.20;;;;;;4968568;28;20055;-77
2023/08/19 01:41:20;;;;;;;18.53;13.90;;;21.70;75.10;;;;;;4951863;28;20051;-77
2023/08/19 01:43:48;;;;;;;16.40;12.93;;;21.70;75.20;;;;;;4949460;28;20514;-78
2023/08/19 01:46:15;;;;;;;17.73;13.00;;;21.70;75.40;;;;;;4967840;28;20055;-77
2023/08/19 01:48:43;;;;;;;16.38;13.10;;;21.70;75.60;;;;;;4951895;28;20135;-77
2023/08/19 01:51:10;;;;;;;16.92;13.00;;;21.70;75.70;;;;;;4951387;28;20679;-78
2023/08/19 01:53:37;;;;;;;18.07;14.13;;;21.70;75.60;;;;;;4951360;28;20086;-77
2023/08/19 01:56:04;;;;;;;16.15;13.05;;;21.70;75.50;;;;;;4951688;28;20051;-77
2023/08/19 01:58:33;;;;;;;19.02;13.95;;;21.60;75.70;;;;;;4951574;28;21039;-77
2023/08/19 02:01:00;;;;;;;19.48;15.18;;;21.60;75.70;;;;;;4951378;28;20075;-77
2023/08/19 02:03:27;;;;;;;17.80;13.35;;;21.60;75.50;;;;;;4948192;28;20063;-77
2023/08/19 02:05:54;;;;;;;17.10;13.40;;;21.50;75.80;;;;;;4967127;28;20051;-77
2023/08/19 02:08:21;;;;;;;18.25;13.70;;;21.50;75.70;;;;;;4951332;28;20130;-77
2023/08/19 02:10:48;;;;;;;16.80;13.55;;;21.50;75.60;;;;;;4968835;28;20087;-77
2023/08/19 02:13:15;;;;;;;17.35;13.18;;;21.50;75.50;;;;;;4935441;28;20131;-77
2023/08/19 02:15:44;;;;;;;18.73;13.80;;;21.50;75.50;;;;;;4948507;28;20056;-77
2023/08/19 02:18:11;;;;;;;18.33;13.27;;;21.50;75.80;;;;;;4951105;28;20047;-77
2023/08/19 02:20:38;;;;;;;16.88;13.50;;;21.50;75.80;;;;;;4951423;28;20125;-77
2023/08/19 02:23:07;;;;;;;18.42;13.68;;;21.50;75.80;;;;;;4954409;28;20059;-77
2023/08/19 02:25:34;;;;;;;20.55;14.70;;;21.40;75.90;;;;;;4965576;28;20511;-77
2023/08/19 02:28:01;;;;;;;20.25;14.55;;;21.50;76.20;;;;;;4964881;28;20146;-77
2023/08/19 02:30:28;;;;;;;17.90;13.60;;;21.40;76.30;;;;;;4970888;28;20040;-77
2023/08/19 02:32:56;;;;;;;18.10;13.18;;;21.40;76.40;;;;;;4970408;28;20082;-77
2023/08/19 02:35:26;;;;;;;17.50;13.38;;;21.40;76.60;;;;;;4954850;28;20816;-77
2023/08/19 02:37:53;;;;;;;18.52;13.60;;;21.40;77.00;;;;;;4972257;28;20170;-77
2023/08/19 02:40:21;;;;;;;19.17;13.95;;;21.40;76.90;;;;;;4954498;28;20081;-77
2023/08/19 02:42:48;;;;;;;22.23;15.03;;;21.30;77.20;;;;;;4954464;28;20061;-77
2023/08/19 02:45:15;;;;;;;18.63;14.30;;;21.30;77.20;;;;;;4950811;28;20054;-77
2023/08/19 02:47:42;;;;;;;18.23;13.75;;;21.30;77.60;;;;;;4961825;28;20103;-77
2023/08/19 02:50:17;;;;;;;20.30;14.43;;;21.30;77.80;;;;;;4958848;28;20129;-77
2023/08/19 02:52:45;;;;;;;20.02;14.13;;;21.30;77.90;;;;;;4954125;28;20055;-77
2023/08/19 02:55:12;;;;;;;19.87;14.63;;;21.30;78.10;;;;;;4970802;28;20059;-77
2023/08/19 02:57:39;;;;;;;19.65;14.60;;;21.20;78.10;;;;;;4953951;28;20469;-77
2023/08/19 03:00:09;;;;;;;17.02;13.00;;;21.20;78.40;;;;;;4970426;28;20126;-77
2023/08/19 03:02:36;;;;;;;20.13;14.35;;;21.20;78.30;;;;;;4970402;28;20051;-77
2023/08/19 03:05:04;;;;;;;20.02;13.57;;;21.20;78.40;;;;;;4952313;28;20055;-77
2023/08/19 03:07:34;;;;;;;19.80;14.30;;;21.20;78.60;;;;;;4954049;28;20051;-77
2023/08/19 03:10:02;;;;;;;23.63;14.38;;;21.20;78.70;;;;;;4962444;28;20507;-77
2023/08/19 03:12:29;;;;;;;23.85;14.13;;;21.10;78.70;;;;;;4970158;28;20095;-77
2023/08/19 03:15:06;;;;;;;20.95;13.60;;;21.20;78.80;;;;;;4954124;28;20058;-77
2023/08/19 03:17:34;;;;;;;20.42;13.35;;;21.10;78.90;;;;;;5001185;23;20631;-77
2023/08/19 03:20:05;;;;;;;19.83;13.50;;;21.10;78.90;;;;;;4990733;28;20129;-77
2023/08/19 03:22:34;;;;;;;19.60;13.68;;;21.10;78.80;;;;;;4972864;28;20055;-77
2023/08/19 03:25:01;;;;;;;18.95;14.55;;;21.10;78.70;;;;;;4973292;28;20060;-77
2023/08/19 03:27:28;;;;;;;21.48;14.55;;;21.10;78.90;;;;;;4989284;28;20071;-77
2023/08/19 03:29:56;;;;;;;20.58;14.77;;;21.10;78.90;;;;;;4988262;28;20082;-77
2023/08/19 03:32:24;;;;;;;17.23;12.73;;;21.10;78.70;;;;;;4984082;28;20170;-77
2023/08/19 03:34:52;;;;;;;17.15;13.45;;;21.10;78.60;;;;;;4990513;28;20050;-77
2023/08/19 03:37:19;;;;;;;16.90;12.93;;;21.10;78.60;;;;;;4973262;28;20097;-77
2023/08/19 03:39:47;;;;;;;16.58;13.02;;;21.10;79.30;;;;;;4971401;28;20123;-77
2023/08/19 03:42:14;;;;;;;18.08;13.63;;;21.10;79.50;;;;;;4989467;28;20090;-78
2023/08/19 03:44:41;;;;;;;17.47;12.67;;;21.10;79.40;;;;;;4989560;28;20082;-77
2023/08/19 03:47:10;;;;;;;19.20;13.35;;;21.10;79.70;;;;;;4988977;28;20162;-77
2023/08/19 03:49:37;;;;;;;18.30;13.65;;;21.10;80.00;;;;;;4971983;28;20130;-77
2023/08/19 03:52:06;;;;;;;18.33;12.60;;;21.10;80.20;;;;;;4972073;28;20130;-77
2023/08/19 03:54:35;;;;;;;16.75;11.63;;;21.10;80.10;;;;;;4988651;28;20055;-77
2023/08/19 03:57:03;;;;;;;16.93;12.27;;;21.10;80.30;;;;;;4988799;28;20055;-77
2023/08/19 03:59:31;;;;;;;16.73;11.70;;;21.10;80.50;;;;;;4988593;28;20059;-77
2023/08/19 04:01:58;;;;;;;16.52;12.20;;;21.10;80.20;;;;;;4986156;28;20057;-77
2023/08/19 04:04:25;;;;;;;16.40;11.90;;;21.10;80.30;;;;;;4971787;28;20059;-77
2023/08/19 04:06:54;;;;;;;15.32;11.48;;;21.10;80.50;;;;;;4989091;28;20054;-77
2023/08/19 04:09:22;;;;;;;16.17;12.03;;;21.10;80.50;;;;;;5004443;28;20051;-77
2023/08/19 04:11:51;;;;;;;17.52;12.00;;;21.00;80.50;;;;;;5004301;28;20076;-77
2023/08/19 04:14:20;;;;;;;16.25;11.77;;;21.10;80.40;;;;;;4982952;28;20522;-77
2023/08/19 04:16:47;;;;;;;17.60;11.80;;;21.00;80.40;;;;;;4987958;28;20054;-77
2023/08/19 04:19:14;;;;;;;16.75;12.20;;;21.10;80.50;;;;;;4971827;28;20129;-77
2023/08/19 04:21:41;;;;;;;16.50;11.40;;;21.10;80.50;;;;;;4988020;28;20600;-77
2023/08/19 04:24:08;;;;;;;16.38;11.60;;;21.10;80.90;;;;;;4989651;28;20635;-77
2023/08/19 04:26:36;;;;;;;16.63;11.77;;;21.10;80.90;;;;;;4989549;28;21093;-77
2023/08/19 04:29:03;;;;;;;17.15;11.90;;;21.10;80.40;;;;;;4988320;28;20050;-77
2023/08/19 04:31:33;;;;;;;17.02;11.70;;;21.00;80.50;;;;;;4987791;28;20508;-77
2023/08/19 04:34:04;;;;;;;17.30;12.07;;;21.00;80.30;;;;;;4971442;28;20062;-77
2023/08/19 04:36:31;;;;;;;15.75;11.90;;;21.00;80.30;;;;;;4988843;28;20062;-77
2023/08/19 04:39:00;;;;;;;15.60;11.40;;;21.10;80.70;;;;;;4969192;28;20521;-77
2023/08/19 04:41:28;;;;;;;16.67;11.95;;;21.00;80.90;;;;;;4983842;28;20055;-77
2023/08/19 04:43:55;;;;;;;16.95;12.07;;;21.10;81.00;;;;;;4974033;28;20057;-77
2023/08/19 04:46:24;;;;;;;16.47;11.20;;;21.10;81.20;;;;;;4987714;28;20055;-77
2023/08/19 04:48:54;;;;;;;20.08;12.18;;;21.10;81.00;;;;;;4971415;28;20058;-77
2023/08/19 04:51:22;;;;;;;15.38;11.35;;;21.10;80.80;;;;;;4971598;28;20043;-77
2023/08/19 04:53:49;;;;;;;16.10;11.38;;;21.10;81.20;;;;;;4980738;28;20210;-77
2023/08/19 04:56:17;;;;;;;16.60;12.23;;;21.10;81.40;;;;;;4988144;28;20047;-77
2023/08/19 04:58:44;;;;;;;15.93;11.80;;;21.10;81.50;;;;;;4989468;28;20162;-77
2023/08/19 05:01:13;;;;;;;18.25;11.50;;;21.10;81.80;;;;;;4971713;28;20054;-77
2023/08/19 05:03:40;;;;;;;20.80;11.50;;;21.10;81.90;;;;;;4961876;28;20508;-77
2023/08/19 05:06:08;;;;;;;16.52;11.32;;;21.10;82.00;;;;;;4996135;28;20054;-77
2023/08/19 05:08:42;;;;;;;16.17;11.25;;;21.10;81.90;;;;;;4987007;28;20398;-77
2023/08/19 05:11:09;;;;;;;17.40;11.60;;;21.10;81.90;;;;;;4970784;28;20050;-77
2023/08/19 05:13:36;;;;;;;15.02;10.90;;;21.10;82.00;;;;;;4987496;28;20058;-77
2023/08/19 05:16:05;;;;;;;16.80;11.27;;;21.10;82.20;;;;;;4962853;28;20050;-77
2023/08/19 05:18:32;;;;;;;16.27;11.15;;;21.10;82.30;;;;;;4971258;28;20643;-77
2023/08/19 05:20:59;;;;;;;13.57;10.25;;;21.10;82.40;;;;;;4971066;28;20137;-77
2023/08/19 05:23:29;;;;;;;14.00;10.40;;;21.10;82.20;;;;;;4987609;28;20053;-77
2023/08/19 05:25:56;;;;;;;13.65;10.60;;;21.20;82.10;;;;;;4987322;28;20062;-77
2023/08/19 05:28:24;;;;;;;15.98;10.82;;;21.20;82.00;;;;;;4987737;28;20442;-77
2023/08/19 05:30:51;;;;;;;15.70;10.55;;;21.20;81.90;;;;;;4971078;28;20059;-77
2023/08/19 05:33:19;;;;;;;16.63;11.35;;;21.20;81.70;;;;;;4988709;28;20058;-77
2023/08/19 05:35:46;;;;;;;15.70;11.23;;;21.30;81.60;;;;;;4988893;28;20130;-77
2023/08/19 05:38:13;;;;;;;15.90;11.32;;;21.30;82.00;;;;;;4989012;28;20143;-77
2023/08/19 05:40:41;;;;;;;14.18;10.77;;;21.30;82.20;;;;;;4983409;28;20145;-77
2023/08/19 05:43:08;;;;;;;13.60;10.18;;;21.30;82.10;;;;;;4987284;28;20047;-78
2023/08/19 05:45:35;;;;;;;15.07;10.27;;;21.30;82.20;;;;;;4986576;28;20055;-79
2023/08/19 05:48:03;;;;;;;15.10;10.13;;;21.30;81.90;;;;;;4987021;28;20158;-76
2023/08/19 05:50:30;;;;;;;14.23;10.02;;;21.30;81.90;;;;;;4986271;28;20057;-78
2023/08/19 05:52:57;;;;;;;14.13;10.60;;;21.30;82.20;;;;;;4988898;28;20054;-78
2023/08/19 05:55:24;;;;;;;14.32;9.85;;;21.30;82.40;;;;;;4988957;28;20051;-78
2023/08/19 05:57:53;;;;;;;16.58;10.82;;;21.40;82.20;;;;;;4991073;28;20145;-78
2023/08/19 06:00:22;;;;;;;16.23;10.30;;;21.40;82.40;;;;;;4986542;28;20055;-80
2023/08/19 06:02:50;;;;;;;14.73;9.95;;;21.40;82.50;;;;;;4989655;28;20054;-79
2023/08/19 06:05:17;;;;;;;13.63;10.30;;;21.40;82.60;;;;;;4989683;28;20587;-79
2023/08/19 06:07:44;;;;;;;13.40;9.90;;;21.40;82.70;;;;;;4988013;28;20050;-79
2023/08/19 06:10:11;;;;;;;16.67;10.75;;;21.40;82.70;;;;;;4989822;28;20062;-80
2023/08/19 06:12:38;;;;;;;13.67;9.93;;;21.40;82.80;;;;;;4990158;28;20101;-81
2023/08/19 06:15:08;;;;;;;14.20;10.30;;;21.40;82.70;;;;;;4989819;28;20057;-80
2023/08/19 06:17:36;;;;;;;14.35;9.85;;;21.50;82.90;;;;;;4973139;28;20054;-80
2023/08/19 06:20:05;;;;;;;13.80;9.50;;;21.50;82.80;;;;;;4987627;28;20047;-79
2023/08/19 06:22:32;;;;;;;13.23;9.45;;;21.50;82.80;;;;;;4985345;28;20058;-78
2023/08/19 06:24:59;;;;;;;12.17;9.13;;;21.50;82.80;;;;;;4988924;28;20081;-78
2023/08/19 06:27:26;;;;;;;14.40;9.57;;;21.50;82.70;;;;;;4987210;28;20047;-78
2023/08/19 06:29:53;;;;;;;15.50;9.77;;;21.50;82.60;;;;;;5002077;28;20054;-78
2023/08/19 06:32:23;;;;;;;13.15;9.48;;;21.50;82.60;;;;;;4987862;28;20057;-79
2023/08/19 06:37:56;;;;;;;13.80;9.30;;;21.50;82.70;;;;;;4942589;28;20091;-79
2023/08/19 06:40:27;;;;;;;13.82;9.30;;;21.50;82.70;;;;;;4929106;28;20140;-78
2023/08/19 06:42:54;;;;;;;12.98;9.13;;;21.60;82.80;;;;;;4929822;29;20135;-79
2023/08/19 06:45:23;;;;;;;25.40;10.02;;;21.60;82.80;;;;;;4929627;28;20050;-79
2023/08/19 06:47:54;;;;;;;20.15;10.13;;;21.70;82.90;;;;;;4928492;28;20056;-79
2023/08/19 06:50:22;;;;;;;12.80;8.40;;;21.70;83.00;;;;;;4945854;28;20474;-79
2023/08/19 06:52:50;;;;;;;13.10;8.55;;;21.70;82.90;;;;;;4945617;28;20059;-79
2023/08/19 06:55:17;;;;;;;12.18;8.88;;;21.70;82.90;;;;;;4941559;28;20144;-79
2023/08/19 06:57:51;;;;;;;12.35;8.73;;;21.70;82.80;;;;;;4944869;28;20494;-78
2023/08/19 07:00:20;;;;;;;13.27;8.80;;;21.70;83.00;;;;;;4929835;28;20079;-79
2023/08/19 07:02:48;;;;;;;13.33;8.40;;;21.70;83.00;;;;;;4944205;28;20055;-80
2023/08/19 07:05:20;;;;;;;10.95;8.23;;;21.70;83.00;;;;;;4931057;29;20144;-80
2023/08/19 07:07:51;;;;;;;13.43;8.02;;;21.70;83.00;;;;;;4930646;29;20060;-80
2023/08/19 07:10:21;;;;;;;11.90;8.00;;;21.80;82.90;;;;;;4946953;28;20078;-79
2023/08/19 07:12:49;;;;;;;12.60;8.20;;;21.80;82.90;;;;;;4931467;28;20060;-79
2023/08/19 07:15:16;;;;;;;11.13;7.87;;;21.80;82.90;;;;;;4946782;28;20134;-77
2023/08/19 07:17:45;;;;;;;11.90;8.10;;;21.90;82.80;;;;;;4930404;29;20072;-79
2023/08/19 07:20:15;;;;;;;11.88;7.65;;;21.90;82.80;;;;;;4932313;28;20056;-80
2023/08/19 07:22:45;;;;;;;11.60;7.85;;;21.90;82.70;;;;;;4930499;28;20052;-78
2023/08/19 07:25:13;;;;;;;10.60;7.63;;;21.90;82.70;;;;;;4934950;28;20062;-79
2023/08/19 07:27:42;;;;;;;10.67;7.77;;;21.90;82.60;;;;;;4949182;28;20112;-78
2023/08/19 07:30:11;;;;;;;11.95;7.80;;;21.90;82.70;;;;;;4946804;28;20044;-78
2023/08/19 07:32:39;;;;;;;11.25;7.43;;;22.00;82.70;;;;;;4946016;28;20099;-79
2023/08/19 07:35:07;;;;;;;11.48;7.32;;;22.00;82.80;;;;;;4945977;28;20095;-78
2023/08/19 07:37:35;;;;;;;10.93;7.28;;;22.00;82.80;;;;;;4931268;28;20572;-78
2023/08/19 07:40:06;;;;;;;9.47;7.13;;;22.00;82.60;;;;;;4946423;28;20091;-79
2023/08/19 07:42:33;;;;;;;9.50;6.93;;;22.00;82.70;;;;;;4944831;28;20070;-79
2023/08/19 07:45:00;;;;;;;9.55;7.05;;;22.10;82.60;;;;;;4930851;28;20155;-79
2023/08/19 07:47:28;;;;;;;10.00;6.68;;;22.10;82.60;;;;;;4945668;28;20055;-79
2023/08/19 07:49:55;;;;;;;10.73;7.43;;;22.10;82.70;;;;;;4946202;28;20056;-79
2023/08/19 07:52:22;;;;;;;12.37;7.13;;;22.20;82.70;;;;;;4929581;29;20054;-79
2023/08/19 07:54:49;;;;;;;12.32;6.75;;;22.20;82.70;;;;;;4929537;29;20052;-79
2023/08/19 07:57:18;;;;;;;10.70;6.63;;;22.20;82.60;;;;;;4929579;28;20052;-79
2023/08/19 07:59:45;;;;;;;10.82;6.68;;;22.30;82.60;;;;;;4913637;29;20156;-80
2023/08/19 08:02:12;;;;;;;10.90;7.07;;;22.30;82.50;;;;;;4929422;28;20127;-80
2023/08/19 08:04:40;;;;;;;9.93;6.60;;;22.40;82.50;;;;;;4946923;28;20068;-80
2023/08/19 08:07:07;;;;;;;10.05;6.25;;;22.40;82.40;;;;;;4947122;28;20562;-80
2023/08/19 08:09:34;;;;;;;9.15;6.28;;;22.50;82.40;;;;;;4932521;28;20580;-80
2023/08/19 08:12:01;;;;;;;10.13;6.30;;;22.50;82.40;;;;;;4943814;28;20049;-80
2023/08/19 08:14:29;;;;;;;9.68;6.65;;;22.50;82.40;;;;;;4929507;28;20064;-80
2023/08/19 08:16:56;;;;;;;9.33;6.33;;;22.50;82.30;;;;;;4930063;28;20138;-79
2023/08/19 08:19:25;;;;;;;9.38;6.28;;;22.50;82.20;;;;;;4947174;28;20056;-78
2023/08/19 08:21:54;;;;;;;14.77;6.70;;;22.60;82.20;;;;;;4944581;28;20051;-79
2023/08/19 08:24:23;;;;;;;11.50;6.53;;;22.60;82.20;;;;;;4928854;28;20097;-79
2023/08/19 08:26:50;;;;;;;9.70;6.40;;;22.70;82.30;;;;;;4929978;28;20052;-81
2023/08/19 08:29:18;;;;;;;10.80;6.03;;;22.70;82.20;;;;;;4946813;28;20052;-79
2023/08/19 08:31:47;;;;;;;9.60;6.25;;;22.80;82.10;;;;;;4945550;28;20140;-80
2023/08/19 08:34:15;;;;;;;10.45;6.60;;;22.80;81.90;;;;;;4945189;28;20044;-78
2023/08/19 08:36:42;;;;;;;7.70;5.97;;;22.90;81.60;;;;;;4945342;28;20135;-77
2023/08/19 08:39:09;;;;;;;9.73;5.85;;;23.00;81.50;;;;;;4930033;28;20067;-77
2023/08/19 08:41:39;;;;;;;8.80;5.77;;;23.00;81.50;;;;;;4929669;28;20054;-77
2023/08/19 08:44:07;;;;;;;10.65;5.68;;;23.10;81.20;;;;;;4938763;28;20092;-76
2023/08/19 08:46:35;;;;;;;7.85;5.78;;;23.10;81.20;;;;;;4930658;28;20063;-74
2023/08/19 08:49:06;;;;;;;8.45;5.78;;;23.20;80.90;;;;;;4931366;28;20131;-76
2023/08/19 08:51:33;;;;;;;11.50;6.20;;;23.20;80.90;;;;;;4945964;28;20541;-76
2023/08/19 08:54:02;;;;;;;9.87;5.70;;;23.20;80.70;;;;;;4927285;29;20058;-75
2023/08/19 08:56:30;;;;;;;9.50;5.88;;;23.30;80.50;;;;;;4928075;28;20048;-75
2023/08/19 08:58:57;;;;;;;8.32;5.60;;;23.40;80.30;;;;;;4943801;28;20167;-76
2023/08/19 09:01:27;;;;;;;8.80;5.70;;;23.40;80.10;;;;;;4930424;28;20056;-76
2023/08/19 09:04:05;;;;;;;7.40;5.47;;;23.50;80.10;;;;;;4934012;28;20144;-78
2023/08/19 09:06:33;;;;;;;9.93;5.83;;;23.60;79.90;;;;;;4911084;29;20438;-78
2023/08/19 09:09:03;;;;;;;9.55;5.35;;;23.60;79.90;;;;;;4930610;28;20048;-81
2023/08/19 09:11:37;;;;;;;9.60;5.88;;;23.60;79.90;;;;;;4944101;28;20074;-77
2023/08/19 09:14:11;;;;;;;8.30;5.88;;;23.80;79.80;;;;;;4928550;29;20135;-77
2023/08/19 09:16:39;;;;;;;11.02;5.90;;;23.80;79.70;;;;;;4929037;28;20522;-72
2023/08/19 09:19:06;;;;;;;12.27;5.80;;;23.90;79.30;;;;;;4929968;28;20054;-80
2023/08/19 09:21:35;;;;;;;9.48;5.60;;;23.90;79.20;;;;;;4942587;28;20126;-77
2023/08/19 09:24:02;;;;;;;10.00;6.10;;;24.00;78.70;;;;;;4928704;29;20076;-70
2023/08/19 09:26:48;;;;;;;8.50;5.72;;;24.00;78.60;;;;;;4939833;28;20769;-77
2023/08/19 09:29:15;;;;;;;8.45;6.00;;;24.10;78.10;;;;;;4929807;28;20613;-79
2023/08/19 09:31:43;;;;;;;7.87;5.33;;;24.20;77.90;;;;;;4928958;29;20056;-74
2023/08/19 09:34:10;;;;;;;8.25;5.88;;;24.20;78.00;;;;;;4930775;28;20048;-77
2023/08/19 09:36:41;;;;;;;9.85;6.43;;;24.20;77.80;;;;;;4944215;28;20830;-71
2023/08/19 09:39:08;;;;;;;10.20;6.13;;;24.30;77.70;;;;;;4928678;29;20048;-75
2023/08/19 09:41:38;;;;;;;9.25;6.68;;;24.40;77.60;;;;;;4928075;28;20048;-75
2023/08/19 09:44:13;;;;;;;8.47;6.07;;;24.40;77.60;;;;;;4930998;28;20506;-71
2023/08/19 09:46:41;;;;;;;9.45;6.47;;;24.40;77.30;;;;;;4943882;28;20517;-72
2023/08/19 09:49:08;;;;;;;9.40;6.50;;;24.50;77.40;;;;;;4944147;28;20052;-72
2023/08/19 09:51:36;;;;;;;9.25;5.72;;;24.60;77.30;;;;;;4926412;28;20489;-72
2023/08/19 09:54:13;;;;;;;11.25;6.45;;;24.60;77.30;;;;;;4921092;29;20884;-72
2023/08/19 09:56:40;;;;;;;10.87;6.20;;;24.70;76.90;;;;;;4929154;28;20060;-72
2023/08/19 09:59:07;;;;;;;9.10;6.10;;;24.70;76.70;;;;;;4944785;28;20052;-72
2023/08/19 10:05:39;;;;;;;10.10;6.25;;;24.80;75.90;;;;;;4943623;28;20059;-70
2023/08/19 10:08:08;;;;;;;9.60;6.30;;;24.90;76.00;;;;;;4943249;28;20192;-70
2023/08/19 10:10:41;;;;;;;9.03;6.40;;;24.90;76.10;;;;;;4928939;28;20048;-67
2023/08/19 10:13:09;;;;;;;10.38;6.28;;;24.90;76.60;;;;;;4929469;28;20098;-69
2023/08/19 10:15:38;;;;;;;11.50;7.30;;;25.00;77.20;;;;;;4927215;29;20060;-69
2023/08/19 10:18:15;;;;;;;12.35;7.20;;;25.00;77.30;;;;;;4923967;29;20084;-69
2023/08/19 10:20:48;;;;;;;10.63;6.50;;;25.00;77.30;;;;;;4943273;28;20076;-70
2023/08/19 10:23:17;;;;;;;8.93;6.55;;;25.00;77.50;;;;;;4926215;28;20398;-70
2023/08/19 10:25:48;;;;;;;11.38;6.20;;;25.00;77.80;;;;;;4924715;28;20112;-70
2023/08/19 10:28:25;;;;;;;10.50;6.13;;;25.00;78.00;;;;;;4926949;28;20161;-69
2023/08/19 10:31:06;;;;;;;10.40;6.68;;;25.00;78.20;;;;;;4942671;28;20063;-70
2023/08/19 10:33:37;;;;;;;11.10;7.37;;;25.00;78.10;;;;;;4926429;28;20072;-70
2023/08/19 10:36:06;;;;;;;11.68;7.80;;;25.00;78.10;;;;;;4928089;28;21162;-70
2023/08/19 10:38:45;;;;;;;11.80;8.30;;;25.00;78.10;;;;;;4927902;28;20150;-69
2023/08/19 10:41:26;;;;;;;12.32;8.00;;;25.00;78.10;;;;;;4929896;29;20052;-69
2023/08/19 10:43:59;;;;;;;11.32;7.53;;;25.00;78.30;;;;;;4932168;28;20059;-69
2023/08/19 10:46:27;;;;;;;12.77;8.43;;;25.00;78.40;;;;;;4945703;28;20056;-69
2023/08/19 10:48:55;;;;;;;14.27;9.63;;;25.00;78.50;;;;;;4946914;28;21245;-69
2023/08/19 10:51:43;;;;;;;12.50;8.98;;;25.00;78.70;;;;;;4946665;28;20060;-69
2023/08/19 10:54:10;;;;;;;10.88;8.30;;;25.00;78.70;;;;;;4943971;28;20058;-69
2023/08/19 10:56:44;;;;;;;13.13;8.77;;;25.00;78.70;;;;;;4946603;28;20056;-69
2023/08/19 10:59:11;;;;;;;11.47;8.73;;;25.00;78.70;;;;;;4946303;28;20058;-69
2023/08/19 11:01:40;;;;;;;12.55;8.60;;;25.00;78.60;;;;;;4931214;28;20064;-70
2023/08/19 11:04:08;;;;;;;13.20;8.43;;;25.10;78.70;;;;;;4929621;28;20486;-70
2023/08/19 11:06:38;;;;;;;13.10;8.48;;;25.00;78.70;;;;;;4928364;28;20061;-70
2023/08/19 11:09:31;;;;;;;11.18;8.88;;;25.10;78.90;;;;;;4929906;28;20052;-74
2023/08/19 11:12:00;;;;;;;11.57;8.90;;;25.10;78.70;;;;;;4945070;28;20059;-74
2023/08/19 11:14:27;;;;;;;10.82;8.80;;;25.10;78.90;;;;;;4929687;28;20123;-74
2023/08/19 11:16:56;;;;;;;13.15;9.60;;;25.20;78.90;;;;;;4929862;28;20135;-74
2023/08/19 11:19:24;;;;;;;14.25;9.55;;;25.20;78.60;;;;;;4927003;28;20139;-74
2023/08/19 11:21:53;;;;;;;15.27;9.68;;;25.30;78.20;;;;;;4928145;28;20103;-74
2023/08/19 11:24:20;;;;;;;13.90;9.90;;;25.30;77.90;;;;;;4942998;28;20064;-75
2023/08/19 11:26:49;;;;;;;13.80;10.40;;;25.40;77.40;;;;;;4930247;28;20143;-73
2023/08/19 11:29:18;;;;;;;14.80;11.32;;;25.40;77.10;;;;;;4945683;28;20048;-74
2023/08/19 11:31:45;;;;;;;19.05;12.18;;;25.40;76.70;;;;;;4945978;28;20062;-73
2023/08/19 11:34:13;;;;;;;15.23;11.10;;;25.50;76.30;;;;;;4930541;28;20052;-73
2023/08/19 11:36:41;;;;;;;17.05;11.48;;;25.50;76.00;;;;;;4930660;28;20135;-74
2023/08/19 11:39:08;;;;;;;14.60;10.90;;;25.50;76.40;;;;;;4945068;28;20524;-74
2023/08/19 11:41:36;;;;;;;15.63;12.32;;;25.50;76.50;;;;;;4944622;28;20162;-73
2023/08/19 11:44:04;;;;;;;14.20;10.68;;;25.60;76.60;;;;;;4929479;28;20055;-74
2023/08/19 11:46:34;;;;;;;18.47;12.77;;;25.60;76.60;;;;;;4930316;28;20062;-74
2023/08/19 11:49:05;;;;;;;16.60;12.63;;;25.60;76.80;;;;;;4944344;28;20062;-74
2023/08/19 11:51:33;;;;;;;18.60;13.02;;;25.60;76.70;;;;;;4928333;29;20573;-74
2023/08/19 11:54:03;;;;;;;16.58;13.15;;;25.70;76.80;;;;;;4947055;28;20056;-74
2023/08/19 11:56:30;;;;;;;18.90;14.40;;;25.80;77.40;;;;;;4931281;28;20064;-74
2023/08/19 11:58:57;;;;;;;22.92;17.60;;;25.80;77.50;;;;;;4946099;28;20721;-73
2023/08/19 12:01:24;;;;;;;19.08;13.93;;;26.00;77.10;;;;;;4931247;28;20060;-74
2023/08/19 12:03:54;;;;;;;16.00;10.80;;;26.10;76.80;;;;;;4946630;28;20478;-73
2023/08/19 12:06:21;;;;;;;19.48;15.82;;;26.10;76.60;;;;;;4932435;28;20622;-74
2023/08/19 12:08:48;;;;;;;24.15;16.63;;;26.20;76.60;;;;;;4930541;28;20058;-74
2023/08/19 12:11:25;;;;;;;21.48;17.10;;;26.30;76.20;;;;;;4944426;28;20490;-72
2023/08/19 12:13:52;;;;;;;26.23;18.92;;;26.30;76.20;;;;;;4928948;28;20495;-72
2023/08/19 12:16:21;;;;;;;19.83;12.52;;;26.40;76.00;;;;;;4912778;29;20049;-73
2023/08/19 12:18:49;;;;;;;26.23;18.93;;;26.40;75.90;;;;;;4929998;28;20083;-74
2023/08/19 12:21:17;;;;;;;31.90;22.00;;;26.40;75.70;;;;;;4927226;28;20593;-73
2023/08/19 12:23:44;;;;;;;36.13;24.83;;;26.30;75.50;;;;;;4928158;28;20114;-75
2023/08/19 12:26:11;;;;;;;30.77;21.95;;;26.20;75.90;;;;;;4944109;28;20055;-74
2023/08/19 12:28:38;;;;;;;37.17;27.87;;;26.20;76.10;;;;;;4930127;28;20056;-72
2023/08/19 12:31:05;;;;;;;35.92;24.38;;;26.10;76.40;;;;;;4944707;28;20529;-73
2023/08/19 12:33:32;;;;;;;35.58;22.63;;;26.10;76.60;;;;;;4928471;28;20859;-74
2023/08/19 12:36:00;;;;;;;36.72;26.08;;;26.00;76.90;;;;;;4928505;29;20048;-75
2023/08/19 12:38:28;;;;;;;37.13;22.67;;;26.00;76.80;;;;;;4943107;28;20060;-74
2023/08/19 12:40:55;;;;;;;35.78;22.52;;;25.90;76.90;;;;;;4929677;28;20060;-73
2023/08/19 12:43:23;;;;;;;32.42;19.52;;;25.80;76.70;;;;;;4941463;28;20062;-73
2023/08/19 12:45:50;;;;;;;27.77;17.85;;;25.70;77.10;;;;;;4926301;28;20060;-73
2023/08/19 12:48:17;;;;;;;27.27;17.20;;;25.60;76.30;;;;;;4930375;28;20082;-73